Dati Storici

Data ora Umidita' aria (%) Temperatura aria (°C) Rad globale (W/m²) Gonioanemometro (°) Tacoanemometro (m/s) Pioggia (mm)
13-06-2020 12:50 60.6 % 25.451 -64.123 1.511 0 0
13-06-2020 12:40 60.7 % 24.988 -62.603 2.044 0 0
13-06-2020 12:30 59.4 % 25.585 -68.788 2.075 0 0
13-06-2020 12:20 61.1 % 25.88 -62.418 1.514 0 0
13-06-2020 12:10 61.6 % 25.632 -68.483 1.733 0 0
13-06-2020 12:00 61.5 % 25.768 -66.24 2.363 0 0
13-06-2020 11:50 61.3 % 25.527 -72.403 1.671 0 0
13-06-2020 11:40 63 % 25.334 -64.942 0.755 0 0
13-06-2020 11:30 62.5 % 25.991 -74.391 1.859 0 0
13-06-2020 11:20 64.9 % 24.611 -69.47 2.302 0 0
13-06-2020 11:10 66.7 % 24.769 -75.355 0.264 0 0
13-06-2020 11:00 69.3 % 24.289 -47.855 1.187 0 0
13-06-2020 10:50 69.1 % 23.608 -68.733 1.622 0 0
13-06-2020 10:40 68.7 % 23.323 -71.795 1.417 0 0
13-06-2020 10:30 68.3 % 23.735 -69.282 1.476 0 0
13-06-2020 10:20 67.4 % 24.084 -71.422 1.513 0 0
13-06-2020 10:10 66.3 % 23.718 -70.145 1.006 0 0
13-06-2020 10:00 66.9 % 23.823 -79.483 0.551 0 0
13-06-2020 09:50 67.2 % 23.862 -71.053 2.201 0 0
13-06-2020 09:40 67.6 % 23.406 -71.538 -0.034 0 0

I dati sono presentati in modo automatico a scopo informativo. In seguito a verifica i dati possono subire modifiche o essere invalidati e non riportati negli archivi definitivi.